sensor_id;sensor_type;location;lat;lon;timestamp;pressure;altitude;pressure_sealevel;temperature;humidity
64095;BME280;50353;51.420;5.682;2023-02-28T00:00:08;102791.66;;;0.50;74.41
64095;BME280;50353;51.420;5.682;2023-02-28T00:02:44;102781.47;;;0.67;74.25
64095;BME280;50353;51.420;5.682;2023-02-28T00:05:12;102784.03;;;0.65;73.98
64095;BME280;50353;51.420;5.682;2023-02-28T00:07:38;102788.03;;;0.39;74.59
64095;BME280;50353;51.420;5.682;2023-02-28T00:10:08;102789.03;;;0.50;74.31
64095;BME280;50353;51.420;5.682;2023-02-28T00:12:34;102789.56;;;0.26;75.10
64095;BME280;50353;51.420;5.682;2023-02-28T00:15:00;102787.38;;;0.55;73.83
64095;BME280;50353;51.420;5.682;2023-02-28T00:17:26;102778.19;;;0.19;75.01
64095;BME280;50353;51.420;5.682;2023-02-28T00:19:51;102782.84;;;0.40;74.75
64095;BME280;50353;51.420;5.682;2023-02-28T00:22:18;102781.91;;;0.35;74.80
64095;BME280;50353;51.420;5.682;2023-02-28T00:24:44;102784.63;;;0.43;74.61
64095;BME280;50353;51.420;5.682;2023-02-28T00:27:10;102787.84;;;0.25;75.15
64095;BME280;50353;51.420;5.682;2023-02-28T00:29:36;102785.31;;;0.29;75.02
64095;BME280;50353;51.420;5.682;2023-02-28T00:32:01;102787.75;;;0.20;75.23
64095;BME280;50353;51.420;5.682;2023-02-28T00:34:27;102785.34;;;0.32;74.77
64095;BME280;50353;51.420;5.682;2023-02-28T00:36:52;102797.19;;;0.12;75.71
64095;BME280;50353;51.420;5.682;2023-02-28T00:39:18;102787.72;;;0.15;75.16
64095;BME280;50353;51.420;5.682;2023-02-28T00:41:43;102792.13;;;0.21;75.05
64095;BME280;50353;51.420;5.682;2023-02-28T00:44:09;102799.28;;;0.38;74.61
64095;BME280;50353;51.420;5.682;2023-02-28T00:46:34;102797.00;;;-0.01;75.13
64095;BME280;50353;51.420;5.682;2023-02-28T00:48:59;102792.75;;;0.06;75.71
64095;BME280;50353;51.420;5.682;2023-02-28T00:51:24;102797.97;;;0.06;75.56
64095;BME280;50353;51.420;5.682;2023-02-28T00:53:50;102803.50;;;0.28;75.33
64095;BME280;50353;51.420;5.682;2023-02-28T00:56:15;102797.50;;;0.35;74.91
64095;BME280;50353;51.420;5.682;2023-02-28T00:58:40;102796.63;;;0.31;75.49
64095;BME280;50353;51.420;5.682;2023-02-28T01:01:06;102799.75;;;0.10;75.29
64095;BME280;50353;51.420;5.682;2023-02-28T01:03:31;102804.22;;;0.19;75.44
64095;BME280;50353;51.420;5.682;2023-02-28T01:05:56;102802.16;;;-0.04;75.99
64095;BME280;50353;51.420;5.682;2023-02-28T01:08:22;102805.78;;;0.08;76.21
64095;BME280;50353;51.420;5.682;2023-02-28T01:10:48;102799.13;;;0.25;75.24
64095;BME280;50353;51.420;5.682;2023-02-28T01:13:14;102803.50;;;0.28;74.99
64095;BME280;50353;51.420;5.682;2023-02-28T01:15:42;102802.41;;;0.15;75.62
64095;BME280;50353;51.420;5.682;2023-02-28T01:18:08;102800.84;;;0.25;74.82
64095;BME280;50353;51.420;5.682;2023-02-28T01:20:38;102808.56;;;0.19;75.11
64095;BME280;50353;51.420;5.682;2023-02-28T01:23:03;102806.47;;;-0.04;75.59
64095;BME280;50353;51.420;5.682;2023-02-28T01:25:29;102807.34;;;-0.05;75.98
64095;BME280;50353;51.420;5.682;2023-02-28T01:27:54;102809.28;;;0.10;75.84
64095;BME280;50353;51.420;5.682;2023-02-28T01:30:20;102815.09;;;-0.07;76.31
64095;BME280;50353;51.420;5.682;2023-02-28T01:32:45;102804.25;;;0.21;75.42
64095;BME280;50353;51.420;5.682;2023-02-28T01:35:10;102811.75;;;0.02;76.00
64095;BME280;50353;51.420;5.682;2023-02-28T01:37:36;102809.00;;;-0.07;76.31
64095;BME280;50353;51.420;5.682;2023-02-28T01:40:01;102812.88;;;0.16;75.75
64095;BME280;50353;51.420;5.682;2023-02-28T01:42:27;102803.91;;;-0.03;76.44
64095;BME280;50353;51.420;5.682;2023-02-28T01:47:42;102809.00;;;-0.09;76.68
64095;BME280;50353;51.420;5.682;2023-02-28T01:50:16;102794.97;;;-0.20;76.94
64095;BME280;50353;51.420;5.682;2023-02-28T01:52:43;102793.34;;;-0.12;77.27
64095;BME280;50353;51.420;5.682;2023-02-28T01:55:10;102796.78;;;-0.14;76.96
64095;BME280;50353;51.420;5.682;2023-02-28T01:57:41;102774.84;;;-0.32;77.27
64095;BME280;50353;51.420;5.682;2023-02-28T02:00:15;102785.81;;;0.05;76.05
64095;BME280;50353;51.420;5.682;2023-02-28T02:02:43;102774.06;;;-0.26;76.97
64095;BME280;50353;51.420;5.682;2023-02-28T02:05:14;102781.19;;;-0.14;76.65
64095;BME280;50353;51.420;5.682;2023-02-28T02:07:43;102783.94;;;-0.05;77.03
64095;BME280;50353;51.420;5.682;2023-02-28T02:10:15;102775.84;;;-0.24;76.17
64095;BME280;50353;51.420;5.682;2023-02-28T02:15:28;102775.97;;;-0.16;75.40
64095;BME280;50353;51.420;5.682;2023-02-28T02:17:57;102755.81;;;-0.29;76.14
64095;BME280;50353;51.420;5.682;2023-02-28T02:21:27;102769.75;;;-0.26;75.95
64095;BME280;50353;51.420;5.682;2023-02-28T02:26:46;102757.72;;;-0.19;75.55
64095;BME280;50353;51.420;5.682;2023-02-28T02:40:09;102762.84;;;-0.22;77.08
64095;BME280;50353;51.420;5.682;2023-02-28T02:42:41;102756.66;;;-0.30;77.39
64095;BME280;50353;51.420;5.682;2023-02-28T02:45:12;102757.44;;;-0.36;76.74
64095;BME280;50353;51.420;5.682;2023-02-28T02:47:40;102763.78;;;-0.19;76.39
64095;BME280;50353;51.420;5.682;2023-02-28T02:50:12;102767.22;;;-0.20;76.45
64095;BME280;50353;51.420;5.682;2023-02-28T02:52:45;102765.53;;;-0.19;76.81
64095;BME280;50353;51.420;5.682;2023-02-28T02:55:14;102768.94;;;-0.22;76.84
64095;BME280;50353;51.420;5.682;2023-02-28T02:57:50;102765.22;;;-0.38;77.33
64095;BME280;50353;51.420;5.682;2023-02-28T03:00:19;102747.25;;;-0.24;76.53
64095;BME280;50353;51.420;5.682;2023-02-28T03:02:47;102757.16;;;0.01;76.17
64095;BME280;50353;51.420;5.682;2023-02-28T03:05:21;102767.25;;;-0.18;76.64
64095;BME280;50353;51.420;5.682;2023-02-28T03:07:48;102770.63;;;-0.24;76.73
64095;BME280;50353;51.420;5.682;2023-02-28T03:10:33;102779.00;;;-0.42;77.52
64095;BME280;50353;51.420;5.682;2023-02-28T03:15:55;102771.41;;;-0.29;76.85
64095;BME280;50353;51.420;5.682;2023-02-28T03:18:32;102761.81;;;-0.33;76.97
64095;BME280;50353;51.420;5.682;2023-02-28T03:21:08;102752.13;;;-0.44;77.38
64095;BME280;50353;51.420;5.682;2023-02-28T03:26:29;102765.53;;;-0.19;76.98
64095;BME280;50353;51.420;5.682;2023-02-28T03:29:15;102769.56;;;-0.38;77.01
64095;BME280;50353;51.420;5.682;2023-02-28T03:32:26;102772.53;;;-0.15;76.79
64095;BME280;50353;51.420;5.682;2023-02-28T03:34:38;102774.63;;;-0.46;77.86
64095;BME280;50353;51.420;5.682;2023-02-28T03:37:12;102768.69;;;-0.36;77.97
64095;BME280;50353;51.420;5.682;2023-02-28T03:39:43;102766.19;;;-0.32;77.67
64095;BME280;50353;51.420;5.682;2023-02-28T03:42:14;102774.16;;;-0.20;77.24
64095;BME280;50353;51.420;5.682;2023-02-28T03:44:46;102769.00;;;-0.17;77.13
64095;BME280;50353;51.420;5.682;2023-02-28T03:47:21;102779.47;;;-0.12;77.05
64095;BME280;50353;51.420;5.682;2023-02-28T03:49:53;102780.22;;;-0.20;77.07
64095;BME280;50353;51.420;5.682;2023-02-28T03:52:24;102776.91;;;-0.11;77.19
64095;BME280;50353;51.420;5.682;2023-02-28T03:54:53;102773.47;;;-0.08;77.36
64095;BME280;50353;51.420;5.682;2023-02-28T03:57:27;102768.53;;;0.09;76.39
64095;BME280;50353;51.420;5.682;2023-02-28T04:00:04;102749.31;;;-0.03;77.05
64095;BME280;50353;51.420;5.682;2023-02-28T04:02:31;102761.91;;;0.32;75.90
64095;BME280;50353;51.420;5.682;2023-02-28T04:04:57;102765.78;;;-0.01;77.04
64095;BME280;50353;51.420;5.682;2023-02-28T04:07:22;102762.25;;;-0.06;77.23
64095;BME280;50353;51.420;5.682;2023-02-28T04:09:48;102775.00;;;-0.21;78.17
64095;BME280;50353;51.420;5.682;2023-02-28T04:12:13;102772.25;;;-0.30;78.13
64095;BME280;50353;51.420;5.682;2023-02-28T04:14:38;102771.59;;;-0.19;78.45
64095;BME280;50353;51.420;5.682;2023-02-28T04:17:04;102771.59;;;-0.19;78.18
64095;BME280;50353;51.420;5.682;2023-02-28T04:19:29;102764.81;;;-0.07;78.43
64095;BME280;50353;51.420;5.682;2023-02-28T04:21:54;102766.34;;;-0.22;78.90
64095;BME280;50353;51.420;5.682;2023-02-28T04:24:22;102761.91;;;-0.27;78.97
64095;BME280;50353;51.420;5.682;2023-02-28T04:26:50;102753.63;;;-0.02;77.96
64095;BME280;50353;51.420;5.682;2023-02-28T04:29:22;102753.00;;;0.13;76.83
64095;BME280;50353;51.420;5.682;2023-02-28T04:31:47;102767.78;;;0.17;76.82
64095;BME280;50353;51.420;5.682;2023-02-28T04:34:13;102771.00;;;-0.01;77.40
64095;BME280;50353;51.420;5.682;2023-02-28T04:36:38;102774.50;;;0.02;77.93
64095;BME280;50353;51.420;5.682;2023-02-28T04:39:03;102771.66;;;-0.12;78.71
64095;BME280;50353;51.420;5.682;2023-02-28T04:41:29;102779.53;;;-0.09;78.98
64095;BME280;50353;51.420;5.682;2023-02-28T04:43:54;102766.75;;;0.05;78.55
64095;BME280;50353;51.420;5.682;2023-02-28T04:46:21;102777.09;;;0.00;78.46
64095;BME280;50353;51.420;5.682;2023-02-28T04:48:47;102770.38;;;0.16;77.76
64095;BME280;50353;51.420;5.682;2023-02-28T04:51:13;102771.34;;;0.24;77.39
64095;BME280;50353;51.420;5.682;2023-02-28T04:53:40;102759.88;;;0.08;77.14
64095;BME280;50353;51.420;5.682;2023-02-28T04:56:07;102779.44;;;-0.14;77.45
64095;BME280;50353;51.420;5.682;2023-02-28T04:58:33;102781.34;;;-0.05;77.89
64095;BME280;50353;51.420;5.682;2023-02-28T05:01:06;102779.91;;;0.15;76.97
64095;BME280;50353;51.420;5.682;2023-02-28T05:03:40;102783.09;;;-0.03;77.53
64095;BME280;50353;51.420;5.682;2023-02-28T05:06:07;102781.34;;;-0.04;77.38
64095;BME280;50353;51.420;5.682;2023-02-28T05:08:32;102773.00;;;0.19;76.82
64095;BME280;50353;51.420;5.682;2023-02-28T05:10:58;102777.38;;;0.22;76.60
64095;BME280;50353;51.420;5.682;2023-02-28T05:13:26;102778.00;;;0.04;77.39
64095;BME280;50353;51.420;5.682;2023-02-28T05:15:51;102781.53;;;0.07;77.07
64095;BME280;50353;51.420;5.682;2023-02-28T05:18:16;102786.91;;;0.20;76.88
64095;BME280;50353;51.420;5.682;2023-02-28T05:20:41;102792.13;;;0.21;77.11
64095;BME280;50353;51.420;5.682;2023-02-28T05:23:08;102795.41;;;0.09;77.47
64095;BME280;50353;51.420;5.682;2023-02-28T05:25:36;102802.38;;;0.12;77.20
64095;BME280;50353;51.420;5.682;2023-02-28T05:28:01;102801.38;;;0.04;77.87
64095;BME280;50353;51.420;5.682;2023-02-28T05:30:26;102796.50;;;0.25;76.89
64095;BME280;50353;51.420;5.682;2023-02-28T05:32:51;102800.50;;;0.02;77.47
64095;BME280;50353;51.420;5.682;2023-02-28T05:35:17;102803.22;;;0.11;77.78
64095;BME280;50353;51.420;5.682;2023-02-28T05:37:42;102794.72;;;0.21;76.59
64095;BME280;50353;51.420;5.682;2023-02-28T05:40:08;102794.69;;;0.20;76.81
64095;BME280;50353;51.420;5.682;2023-02-28T05:42:37;102804.28;;;0.24;76.38
64095;BME280;50353;51.420;5.682;2023-02-28T05:45:03;102804.97;;;0.12;76.70
64095;BME280;50353;51.420;5.682;2023-02-28T05:47:29;102804.09;;;0.10;77.40
64095;BME280;50353;51.420;5.682;2023-02-28T05:49:54;102806.63;;;0.07;77.22
64095;BME280;50353;51.420;5.682;2023-02-28T05:52:20;102804.94;;;0.09;76.96
64095;BME280;50353;51.420;5.682;2023-02-28T05:54:46;102804.91;;;0.06;77.01
64095;BME280;50353;51.420;5.682;2023-02-28T05:57:12;102808.13;;;-0.11;77.24
64095;BME280;50353;51.420;5.682;2023-02-28T05:59:37;102809.03;;;-0.06;77.14
64095;BME280;50353;51.420;5.682;2023-02-28T06:02:05;102805.50;;;-0.11;76.85
64095;BME280;50353;51.420;5.682;2023-02-28T06:04:30;102812.13;;;-0.30;77.73
64095;BME280;50353;51.420;5.682;2023-02-28T06:06:55;102810.09;;;0.04;76.49
64095;BME280;50353;51.420;5.682;2023-02-28T06:09:22;102813.44;;;-0.02;76.73
64095;BME280;50353;51.420;5.682;2023-02-28T06:11:48;102813.38;;;-0.05;76.80
64095;BME280;50353;51.420;5.682;2023-02-28T06:14:17;102811.75;;;0.01;76.56
64095;BME280;50353;51.420;5.682;2023-02-28T06:16:44;102812.31;;;-0.19;76.82
64095;BME280;50353;51.420;5.682;2023-02-28T06:19:10;102819.53;;;0.01;76.69
64095;BME280;50353;51.420;5.682;2023-02-28T06:21:35;102817.75;;;-0.04;76.33
64095;BME280;50353;51.420;5.682;2023-02-28T06:24:02;102814.06;;;-0.17;76.51
64095;BME280;50353;51.420;5.682;2023-02-28T06:26:27;102811.47;;;-0.17;76.38
64095;BME280;50353;51.420;5.682;2023-02-28T06:28:53;102814.00;;;-0.21;76.54
64095;BME280;50353;51.420;5.682;2023-02-28T06:31:19;102812.06;;;-0.31;76.66
64095;BME280;50353;51.420;5.682;2023-02-28T06:33:45;102819.34;;;-0.13;75.60
64095;BME280;50353;51.420;5.682;2023-02-28T06:36:12;102822.47;;;-0.31;76.35
64095;BME280;50353;51.420;5.682;2023-02-28T06:38:38;102822.75;;;-0.16;75.74
64095;BME280;50353;51.420;5.682;2023-02-28T06:41:04;102826.31;;;-0.11;75.44
64095;BME280;50353;51.420;5.682;2023-02-28T06:43:32;102816.03;;;-0.02;74.82
64095;BME280;50353;51.420;5.682;2023-02-28T06:46:00;102824.19;;;-0.33;75.53
64095;BME280;50353;51.420;5.682;2023-02-28T06:48:27;102834.41;;;0.11;74.66
64095;BME280;50353;51.420;5.682;2023-02-28T06:51:01;102841.81;;;-0.14;74.26
64095;BME280;50353;51.420;5.682;2023-02-28T06:53:27;102845.63;;;0.07;74.53
64095;BME280;50353;51.420;5.682;2023-02-28T06:55:52;102840.69;;;0.22;73.75
64095;BME280;50353;51.420;5.682;2023-02-28T06:58:17;102843.47;;;0.35;72.84
64095;BME280;50353;51.420;5.682;2023-02-28T07:00:45;102840.88;;;0.35;72.88
64095;BME280;50353;51.420;5.682;2023-02-28T07:03:11;102847.19;;;0.52;73.13
64095;BME280;50353;51.420;5.682;2023-02-28T07:05:38;102850.44;;;0.37;72.18
64095;BME280;50353;51.420;5.682;2023-02-28T07:08:05;102843.97;;;0.70;72.10
64095;BME280;50353;51.420;5.682;2023-02-28T07:10:31;102850.03;;;0.71;71.43
64095;BME280;50353;51.420;5.682;2023-02-28T07:12:56;102852.75;;;0.78;71.88
64095;BME280;50353;51.420;5.682;2023-02-28T07:15:22;102853.91;;;1.02;70.61
64095;BME280;50353;51.420;5.682;2023-02-28T07:17:47;102853.81;;;0.93;70.75
64095;BME280;50353;51.420;5.682;2023-02-28T07:20:12;102855.16;;;0.64;71.42
64095;BME280;50353;51.420;5.682;2023-02-28T07:22:38;102855.38;;;0.80;71.30
64095;BME280;50353;51.420;5.682;2023-02-28T07:25:04;102856.72;;;1.17;70.19
64095;BME280;50353;51.420;5.682;2023-02-28T07:27:30;102856.59;;;1.07;69.58
64095;BME280;50353;51.420;5.682;2023-02-28T07:29:55;102862.56;;;0.99;69.73
64095;BME280;50353;51.420;5.682;2023-02-28T07:32:21;102864.28;;;0.99;70.12
64095;BME280;50353;51.420;5.682;2023-02-28T07:34:46;102858.91;;;0.85;69.16
64095;BME280;50353;51.420;5.682;2023-02-28T07:37:12;102860.50;;;0.74;69.74
64095;BME280;50353;51.420;5.682;2023-02-28T07:39:37;102863.59;;;1.14;68.77
64095;BME280;50353;51.420;5.682;2023-02-28T07:42:06;102862.81;;;1.23;68.10
64095;BME280;50353;51.420;5.682;2023-02-28T07:44:34;102862.75;;;1.13;68.34
64095;BME280;50353;51.420;5.682;2023-02-28T07:47:00;102869.53;;;1.04;68.57
64095;BME280;50353;51.420;5.682;2023-02-28T07:49:25;102860.13;;;1.12;68.16
64095;BME280;50353;51.420;5.682;2023-02-28T07:51:51;102864.84;;;1.50;66.69
64095;BME280;50353;51.420;5.682;2023-02-28T07:54:16;102876.53;;;1.08;68.71
64095;BME280;50353;51.420;5.682;2023-02-28T07:56:41;102870.97;;;1.49;65.73
64095;BME280;50353;51.420;5.682;2023-02-28T07:59:06;102870.91;;;1.46;66.43
64095;BME280;50353;51.420;5.682;2023-02-28T08:01:32;102876.19;;;1.52;66.84
64095;BME280;50353;51.420;5.682;2023-02-28T08:03:57;102871.19;;;1.72;67.25
64095;BME280;50353;51.420;5.682;2023-02-28T08:06:24;102887.03;;;1.95;65.16
64095;BME280;50353;51.420;5.682;2023-02-28T08:08:49;102885.56;;;1.38;66.88
64095;BME280;50353;51.420;5.682;2023-02-28T08:11:15;102888.75;;;1.95;66.79
64095;BME280;50353;51.420;5.682;2023-02-28T08:13:41;102881.91;;;2.05;65.43
64095;BME280;50353;51.420;5.682;2023-02-28T08:16:09;102882.06;;;2.26;64.67
64095;BME280;50353;51.420;5.682;2023-02-28T08:18:34;102877.34;;;1.82;64.22
64095;BME280;50353;51.420;5.682;2023-02-28T08:21:06;102870.41;;;1.82;63.73
64095;BME280;50353;51.420;5.682;2023-02-28T08:23:31;102881.75;;;1.89;62.36
64095;BME280;50353;51.420;5.682;2023-02-28T08:25:58;102874.94;;;2.05;63.02
64095;BME280;50353;51.420;5.682;2023-02-28T08:28:23;102880.50;;;2.48;62.02
64095;BME280;50353;51.420;5.682;2023-02-28T08:30:49;102873.28;;;2.16;61.09
64095;BME280;50353;51.420;5.682;2023-02-28T08:33:14;102881.19;;;2.27;61.50
64095;BME280;50353;51.420;5.682;2023-02-28T08:35:40;102877.66;;;2.17;60.40
64095;BME280;50353;51.420;5.682;2023-02-28T08:38:05;102879.53;;;2.37;60.33
64095;BME280;50353;51.420;5.682;2023-02-28T08:40:30;102882.22;;;2.46;57.78
64095;BME280;50353;51.420;5.682;2023-02-28T08:42:56;102875.91;;;2.19;58.72
64095;BME280;50353;51.420;5.682;2023-02-28T08:45:21;102878.88;;;2.69;57.07
64095;BME280;50353;51.420;5.682;2023-02-28T08:47:46;102870.13;;;2.59;57.27
64095;BME280;50353;51.420;5.682;2023-02-28T08:50:12;102876.97;;;2.43;57.68
64095;BME280;50353;51.420;5.682;2023-02-28T08:52:42;102854.59;;;2.84;57.54
64095;BME280;50353;51.420;5.682;2023-02-28T08:55:07;102864.28;;;3.13;55.17
64095;BME280;50353;51.420;5.682;2023-02-28T08:57:34;102867.75;;;3.12;55.87
64095;BME280;50353;51.420;5.682;2023-02-28T09:00:00;102867.81;;;3.35;54.95
64095;BME280;50353;51.420;5.682;2023-02-28T09:02:26;102862.47;;;3.01;55.26
64095;BME280;50353;51.420;5.682;2023-02-28T09:04:52;102875.63;;;3.22;53.54
64095;BME280;50353;51.420;5.682;2023-02-28T09:07:17;102872.03;;;2.96;54.24
64095;BME280;50353;51.420;5.682;2023-02-28T09:09:42;102873.84;;;3.11;52.88
64095;BME280;50353;51.420;5.682;2023-02-28T09:12:22;102875.63;;;3.27;54.04
64095;BME280;50353;51.420;5.682;2023-02-28T09:14:47;102866.09;;;3.37;52.44
64095;BME280;50353;51.420;5.682;2023-02-28T09:17:13;102866.16;;;3.66;51.52
64095;BME280;50353;51.420;5.682;2023-02-28T09:19:38;102871.31;;;3.31;50.73
64095;BME280;50353;51.420;5.682;2023-02-28T09:22:03;102865.25;;;3.50;49.74
64095;BME280;50353;51.420;5.682;2023-02-28T09:24:28;102868.78;;;4.42;48.35
64095;BME280;50353;51.420;5.682;2023-02-28T09:26:56;102860.03;;;4.42;49.02
64095;BME280;50353;51.420;5.682;2023-02-28T09:29:22;102862.69;;;4.17;49.90
64095;BME280;50353;51.420;5.682;2023-02-28T09:31:47;102876.63;;;4.27;44.99
64095;BME280;50353;51.420;5.682;2023-02-28T09:34:12;102863.59;;;4.05;46.02
64095;BME280;50353;51.420;5.682;2023-02-28T09:36:37;102859.97;;;4.72;45.54
64095;BME280;50353;51.420;5.682;2023-02-28T09:39:03;102866.19;;;4.22;44.94
64095;BME280;50353;51.420;5.682;2023-02-28T09:41:36;102859.84;;;5.08;45.61
64095;BME280;50353;51.420;5.682;2023-02-28T09:44:05;102887.06;;;4.56;42.42
64095;BME280;50353;51.420;5.682;2023-02-28T09:46:44;102875.75;;;4.40;44.39
64095;BME280;50353;51.420;5.682;2023-02-28T09:49:14;102869.53;;;4.86;42.22
64095;BME280;50353;51.420;5.682;2023-02-28T09:51:58;102860.63;;;5.24;41.71
64095;BME280;50353;51.420;5.682;2023-02-28T09:54:28;102848.59;;;4.80;41.36
64095;BME280;50353;51.420;5.682;2023-02-28T09:57:35;102859.16;;;4.46;43.70
64095;BME280;50353;51.420;5.682;2023-02-28T10:02:51;102854.69;;;4.83;43.91
64095;BME280;50353;51.420;5.682;2023-02-28T10:05:21;102851.22;;;4.78;41.22
64095;BME280;50353;51.420;5.682;2023-02-28T10:08:00;102854.81;;;4.45;42.78
64095;BME280;50353;51.420;5.682;2023-02-28T10:10:36;102848.31;;;5.38;41.30
64095;BME280;50353;51.420;5.682;2023-02-28T10:13:07;102843.91;;;5.45;41.94
64095;BME280;50353;51.420;5.682;2023-02-28T10:15:38;102845.09;;;4.81;40.60
64095;BME280;50353;51.420;5.682;2023-02-28T10:18:05;102854.72;;;4.80;41.80
64095;BME280;50353;51.420;5.682;2023-02-28T10:20:37;102848.56;;;4.89;40.99
64095;BME280;50353;51.420;5.682;2023-02-28T10:25:37;102852.63;;;5.47;40.53
64095;BME280;50353;51.420;5.682;2023-02-28T10:28:16;102838.56;;;5.61;39.94
64095;BME280;50353;51.420;5.682;2023-02-28T10:30:51;102840.91;;;6.01;38.76
64095;BME280;50353;51.420;5.682;2023-02-28T10:33:27;102844.97;;;5.12;39.95
64095;BME280;50353;51.420;5.682;2023-02-28T10:35:53;102841.59;;;4.83;41.43
64095;BME280;50353;51.420;5.682;2023-02-28T10:38:34;102845.81;;;5.15;41.59
64095;BME280;50353;51.420;5.682;2023-02-28T10:41:05;102832.59;;;5.35;39.59
64095;BME280;50353;51.420;5.682;2023-02-28T10:43:31;102835.41;;;5.06;41.15
64095;BME280;50353;51.420;5.682;2023-02-28T10:46:04;102834.44;;;5.18;40.91
64095;BME280;50353;51.420;5.682;2023-02-28T10:48:39;102842.84;;;5.72;41.56
64095;BME280;50353;51.420;5.682;2023-02-28T10:51:07;102832.66;;;5.29;39.46
64095;BME280;50353;51.420;5.682;2023-02-28T10:53:37;102833.75;;;4.74;41.09
64095;BME280;50353;51.420;5.682;2023-02-28T10:56:16;102838.13;;;4.77;41.72
64095;BME280;50353;51.420;5.682;2023-02-28T10:59:01;102837.06;;;5.21;41.81
64095;BME280;50353;51.420;5.682;2023-02-28T11:03:54;102844.78;;;5.46;40.16
64095;BME280;50353;51.420;5.682;2023-02-28T11:06:22;102833.22;;;5.70;41.25
64095;BME280;50353;51.420;5.682;2023-02-28T11:08:52;102829.19;;;5.24;42.39
64095;BME280;50353;51.420;5.682;2023-02-28T11:11:19;102829.47;;;4.62;43.45
64095;BME280;50353;51.420;5.682;2023-02-28T11:13:46;102809.69;;;5.62;42.98
64095;BME280;50353;51.420;5.682;2023-02-28T11:16:15;102831.28;;;6.01;40.09
64095;BME280;50353;51.420;5.682;2023-02-28T11:18:46;102823.13;;;5.08;40.68
64095;BME280;50353;51.420;5.682;2023-02-28T11:21:48;102815.06;;;5.44;40.46
64095;BME280;50353;51.420;5.682;2023-02-28T11:24:28;102816.59;;;5.72;40.99
64095;BME280;50353;51.420;5.682;2023-02-28T11:26:54;102813.34;;;5.39;40.83
64095;BME280;50353;51.420;5.682;2023-02-28T11:29:27;102811.66;;;5.26;40.67
64095;BME280;50353;51.420;5.682;2023-02-28T11:32:06;102808.28;;;5.07;42.40
64095;BME280;50353;51.420;5.682;2023-02-28T11:34:36;102811.16;;;5.97;40.67
64095;BME280;50353;51.420;5.682;2023-02-28T11:37:03;102806.63;;;4.95;40.93
64095;BME280;50353;51.420;5.682;2023-02-28T11:39:31;102813.97;;;5.71;40.88
64095;BME280;50353;51.420;5.682;2023-02-28T11:44:43;102795.91;;;6.39;40.27
64095;BME280;50353;51.420;5.682;2023-02-28T11:52:54;102788.28;;;6.12;42.10
64095;BME280;50353;51.420;5.682;2023-02-28T11:55:55;102799.59;;;6.18;41.34
64095;BME280;50353;51.420;5.682;2023-02-28T11:58:45;102796.47;;;5.76;41.38
64095;BME280;50353;51.420;5.682;2023-02-28T12:04:21;102780.22;;;6.32;41.07
64095;BME280;50353;51.420;5.682;2023-02-28T12:07:15;102795.00;;;5.36;41.28
64095;BME280;50353;51.420;5.682;2023-02-28T12:09:59;102777.59;;;5.26;43.22
64095;BME280;50353;51.420;5.682;2023-02-28T12:21:12;102775.44;;;5.79;40.52
64095;BME280;50353;51.420;5.682;2023-02-28T12:29:18;102765.66;;;5.97;41.71
64095;BME280;50353;51.420;5.682;2023-02-28T12:34:20;102752.19;;;6.31;40.73
64095;BME280;50353;51.420;5.682;2023-02-28T12:36:48;102746.50;;;6.68;40.87
64095;BME280;50353;51.420;5.682;2023-02-28T12:39:25;102747.25;;;6.00;40.92
64095;BME280;50353;51.420;5.682;2023-02-28T12:41:51;102745.69;;;6.64;39.02
64095;BME280;50353;51.420;5.682;2023-02-28T12:44:39;102748.56;;;6.42;41.87
64095;BME280;50353;51.420;5.682;2023-02-28T12:47:13;102751.66;;;5.99;40.77
64095;BME280;50353;51.420;5.682;2023-02-28T12:49:46;102737.66;;;5.96;40.18
64095;BME280;50353;51.420;5.682;2023-02-28T12:52:22;102744.75;;;5.86;41.20
64095;BME280;50353;51.420;5.682;2023-02-28T12:59:59;102717.09;;;6.38;41.83
64095;BME280;50353;51.420;5.682;2023-02-28T13:05:26;102730.72;;;6.68;40.58
64095;BME280;50353;51.420;5.682;2023-02-28T13:10:44;102718.16;;;6.24;40.81
64095;BME280;50353;51.420;5.682;2023-02-28T13:13:16;102717.72;;;6.57;43.11
64095;BME280;50353;51.420;5.682;2023-02-28T13:16:06;102707.59;;;6.28;41.57
64095;BME280;50353;51.420;5.682;2023-02-28T13:18:35;102714.31;;;6.50;40.98
64095;BME280;50353;51.420;5.682;2023-02-28T13:21:03;102713.81;;;6.20;43.08
64095;BME280;50353;51.420;5.682;2023-02-28T13:26:17;102715.00;;;6.65;42.27
64095;BME280;50353;51.420;5.682;2023-02-28T13:31:14;102711.03;;;6.31;41.64
64095;BME280;50353;51.420;5.682;2023-02-28T13:34:12;102704.50;;;5.88;42.46
64095;BME280;50353;51.420;5.682;2023-02-28T13:36:38;102707.19;;;6.58;41.31
64095;BME280;50353;51.420;5.682;2023-02-28T13:42:33;102710.31;;;6.20;42.61
64095;BME280;50353;51.420;5.682;2023-02-28T13:47:32;102699.28;;;5.85;42.03
64095;BME280;50353;51.420;5.682;2023-02-28T14:01:41;102683.06;;;6.27;42.67
64095;BME280;50353;51.420;5.682;2023-02-28T14:06:38;102702.03;;;5.70;43.02
64095;BME280;50353;51.420;5.682;2023-02-28T14:11:38;102683.56;;;5.81;43.39
64095;BME280;50353;51.420;5.682;2023-02-28T14:14:06;102684.41;;;5.84;42.93
64095;BME280;50353;51.420;5.682;2023-02-28T14:16:41;102671.13;;;6.00;43.69
64095;BME280;50353;51.420;5.682;2023-02-28T14:19:15;102677.44;;;5.80;44.08
64095;BME280;50353;51.420;5.682;2023-02-28T14:21:59;102686.22;;;5.78;42.88
64095;BME280;50353;51.420;5.682;2023-02-28T14:34:53;102682.09;;;5.52;44.00
64095;BME280;50353;51.420;5.682;2023-02-28T14:37:27;102696.13;;;5.48;43.94
64095;BME280;50353;51.420;5.682;2023-02-28T14:39:54;102678.59;;;5.53;43.29
64095;BME280;50353;51.420;5.682;2023-02-28T14:42:39;102685.84;;;5.23;43.91
64095;BME280;50353;51.420;5.682;2023-02-28T14:45:19;102664.91;;;5.20;43.26
64095;BME280;50353;51.420;5.682;2023-02-28T14:47:45;102680.47;;;5.38;43.33
64095;BME280;50353;51.420;5.682;2023-02-28T14:50:19;102681.34;;;5.40;44.00
64095;BME280;50353;51.420;5.682;2023-02-28T14:52:45;102679.69;;;5.32;43.79
64095;BME280;50353;51.420;5.682;2023-02-28T14:55:17;102678.75;;;5.37;43.76
64095;BME280;50353;51.420;5.682;2023-02-28T14:58:01;102662.25;;;5.23;42.83